Inverrary, Florida
Current Conditions -  °F | °C
As of 12:53 AM on Sunday 26 Oct 2014 (Local Time) from KFXE Reporting Station
Broken Clouds Broken Clouds  
Wind Chill: 72°   Ceiling: 4100
Heat Index: 72°   Visibility: 10mi
Dew Point: 63°   Wind: 6mph
Humidity: 73%   Direction: 340°NNW
Pressure: 29.93"   Gusts: NA
Location:  26.1819°N, 80.2274°W
Report Text: KFXE 260453Z 34005KT 10SM BKN041 22/17 A2993 RMK AO2 SLP137 T02220172 402890194
Loading
Personal Weather Stations






























Interactive Weather Map
Tropical Storm Tracking
New forecast layout! Learn more

10-Day Weather Forecast

Advertisements
Track Severe Weather on mobile